Time;durP1;ratioP1;P1;durP2;ratioP2;P2;SDS_P1;SDS_P2;PMS_P1;PMS_P2;Temp;Humidity;BMP_temperature;BMP_pressure;BME280_temperature;BME280_humidity;BME280_pressure;Samples;Min_cycle;Max_cycle;Signal;HPM_P1;HPM_P2
2023/07/18 00:01:13;;;;;;;;;1.75;1.75;;;;;;;;5052922;28;8799;-89
2023/07/18 00:03:41;;;;;;;;;1.25;1.25;;;;;;;;5053768;28;8850;-83
2023/07/18 00:06:09;;;;;;;;;1.00;1.00;;;;;;;;5072554;28;8868;-85
2023/07/18 00:08:39;;;;;;;;;1.25;1.25;;;;;;;;5067100;28;8983;-82
2023/07/18 00:11:06;;;;;;;;;1.00;1.00;;;;;;;;5062952;28;8848;-82
2023/07/18 00:13:33;;;;;;;;;2.50;2.50;;;;;;;;5069311;28;8844;-83
2023/07/18 00:16:01;;;;;;;;;2.25;2.00;;;;;;;;5069495;28;8841;-85
2023/07/18 00:18:28;;;;;;;;;1.25;1.25;;;;;;;;5069742;28;8875;-87
2023/07/18 00:20:55;;;;;;;;;1.50;1.50;;;;;;;;5070385;28;8859;-86
2023/07/18 00:23:24;;;;;;;;;1.00;1.00;;;;;;;;5064328;28;8851;-87
2023/07/18 00:25:51;;;;;;;;;0.00;0.00;;;;;;;;5056399;28;8994;-80
2023/07/18 00:28:19;;;;;;;;;1.75;1.75;;;;;;;;5055238;28;8870;-84
2023/07/18 00:30:47;;;;;;;;;2.25;2.25;;;;;;;;5054064;28;8918;-83
2023/07/18 00:33:14;;;;;;;;;2.75;2.75;;;;;;;;5053210;28;8847;-82
2023/07/18 00:35:43;;;;;;;;;2.75;1.00;;;;;;;;5068625;28;9363;-87
2023/07/18 00:38:11;;;;;;;;;2.00;2.00;;;;;;;;5070257;28;8870;-91
2023/07/18 00:40:40;;;;;;;;;1.00;1.00;;;;;;;;5052191;28;8874;-81
2023/07/18 00:43:14;;;;;;;;;2.75;1.00;;;;;;;;5070682;28;8959;-90
2023/07/18 00:45:41;;;;;;;;;1.00;1.00;;;;;;;;5067557;28;9256;-87
2023/07/18 00:48:09;;;;;;;;;1.00;1.00;;;;;;;;5057451;28;8954;-86
2023/07/18 00:50:37;;;;;;;;;1.00;1.00;;;;;;;;5057997;28;8855;-95
2023/07/18 00:53:04;;;;;;;;;3.75;2.75;;;;;;;;5067975;28;8844;-96
2023/07/18 00:55:31;;;;;;;;;1.50;1.00;;;;;;;;5060066;28;8970;-96
2023/07/18 00:58:01;;;;;;;;;1.50;1.25;;;;;;;;5067062;28;8860;-87
2023/07/18 01:00:31;;;;;;;;;1.00;1.00;;;;;;;;5060223;28;8755;-85
2023/07/18 01:03:01;;;;;;;;;2.50;2.50;;;;;;;;5061050;28;8839;-85
2023/07/18 01:05:28;;;;;;;;;2.00;2.00;;;;;;;;5066746;28;8849;-83
2023/07/18 01:07:56;;;;;;;;;1.25;1.25;;;;;;;;5054844;28;8855;-81
2023/07/18 01:10:25;;;;;;;;;1.00;1.00;;;;;;;;5053452;28;8845;-80
2023/07/18 01:12:53;;;;;;;;;1.00;1.00;;;;;;;;5067542;28;8877;-81
2023/07/18 01:15:22;;;;;;;;;1.25;1.25;;;;;;;;5052176;28;8851;-81
2023/07/18 01:17:50;;;;;;;;;2.00;2.00;;;;;;;;5071530;28;9766;-81
2023/07/18 01:20:19;;;;;;;;;2.00;2.00;;;;;;;;5070552;28;8868;-81
2023/07/18 01:22:49;;;;;;;;;4.00;3.00;;;;;;;;5067517;28;8937;-81
2023/07/18 01:25:17;;;;;;;;;3.33;2.33;;;;;;;;5070699;28;9092;-82
2023/07/18 01:27:45;;;;;;;;;2.00;2.00;;;;;;;;5051998;28;9282;-83
2023/07/18 01:30:12;;;;;;;;;3.00;3.00;;;;;;;;5050857;28;9184;-85
2023/07/18 01:32:41;;;;;;;;;2.00;2.00;;;;;;;;5070656;28;9106;-82
2023/07/18 01:35:09;;;;;;;;;2.00;2.00;;;;;;;;5070389;28;9175;-86
2023/07/18 01:37:37;;;;;;;;;1.67;1.67;;;;;;;;5053757;28;9371;-81
2023/07/18 01:40:09;;;;;;;;;1.67;1.67;;;;;;;;5068000;28;9206;-89
2023/07/18 01:42:36;;;;;;;;;1.75;1.75;;;;;;;;5060542;28;9077;-82
2023/07/18 01:45:04;;;;;;;;;1.50;1.50;;;;;;;;5064728;28;9033;-94
2023/07/18 01:47:32;;;;;;;;;1.00;1.00;;;;;;;;5052927;28;8881;-96
2023/07/18 01:49:59;;;;;;;;;1.00;1.00;;;;;;;;5055556;28;9609;-88
2023/07/18 01:52:28;;;;;;;;;2.00;2.00;;;;;;;;5053907;28;9137;-92
2023/07/18 01:54:58;;;;;;;;;2.00;2.00;;;;;;;;5057200;28;9032;-92
2023/07/18 01:57:29;;;;;;;;;2.00;2.00;;;;;;;;5060038;28;9071;-93
2023/07/18 01:59:56;;;;;;;;;2.67;1.67;;;;;;;;5060196;28;9062;-87
2023/07/18 02:02:24;;;;;;;;;5.00;3.00;;;;;;;;5058585;28;9075;-94
2023/07/18 02:04:51;;;;;;;;;2.67;1.00;;;;;;;;5054225;28;9145;-95
2023/07/18 02:07:18;;;;;;;;;3.00;1.67;;;;;;;;5052161;28;9031;-86
2023/07/18 02:09:46;;;;;;;;;3.33;1.67;;;;;;;;5052874;28;9361;-96
2023/07/18 02:12:13;;;;;;;;;1.00;1.00;;;;;;;;5051473;28;9092;-93
2023/07/18 02:14:43;;;;;;;;;1.00;1.00;;;;;;;;5063001;28;9020;-94
2023/07/18 02:17:11;;;;;;;;;1.00;1.00;;;;;;;;5061094;28;8947;-95
2023/07/18 02:19:38;;;;;;;;;3.00;2.00;;;;;;;;5058129;28;9085;-93
2023/07/18 02:22:06;;;;;;;;;1.00;1.00;;;;;;;;5065140;28;9214;-95
2023/07/18 02:24:34;;;;;;;;;3.00;1.00;;;;;;;;5058030;28;8974;-94
2023/07/18 02:27:01;;;;;;;;;1.00;1.00;;;;;;;;5071696;28;9069;-95
2023/07/18 02:29:29;;;;;;;;;1.67;1.67;;;;;;;;5058481;28;9193;-90
2023/07/18 02:31:58;;;;;;;;;1.00;1.00;;;;;;;;5056148;28;8964;-96
2023/07/18 02:34:26;;;;;;;;;1.00;1.00;;;;;;;;5073492;28;9794;-95
2023/07/18 02:36:54;;;;;;;;;2.00;1.00;;;;;;;;5063969;28;9252;-94
2023/07/18 02:39:21;;;;;;;;;1.67;1.67;;;;;;;;5062814;28;9034;-92
2023/07/18 02:41:48;;;;;;;;;2.67;2.67;;;;;;;;5055527;28;9084;-89
2023/07/18 02:44:15;;;;;;;;;1.67;1.67;;;;;;;;5073015;28;9096;-93
2023/07/18 02:46:43;;;;;;;;;1.00;1.00;;;;;;;;5061356;28;9038;-93
2023/07/18 02:49:11;;;;;;;;;1.00;1.00;;;;;;;;5056939;28;9290;-91
2023/07/18 02:51:39;;;;;;;;;2.00;2.00;;;;;;;;5063663;28;9043;-92
2023/07/18 02:54:06;;;;;;;;;4.00;2.00;;;;;;;;5060935;28;9086;-91
2023/07/18 02:56:34;;;;;;;;;2.00;2.00;;;;;;;;5056367;28;9083;-89
2023/07/18 02:59:01;;;;;;;;;1.00;1.00;;;;;;;;5054769;28;8998;-89
2023/07/18 03:01:29;;;;;;;;;2.00;2.00;;;;;;;;5051172;28;9008;-85
2023/07/18 03:03:56;;;;;;;;;4.00;1.00;;;;;;;;5066154;28;9189;-90
2023/07/18 03:06:25;;;;;;;;;2.00;2.00;;;;;;;;5050145;28;9084;-85
2023/07/18 03:08:52;;;;;;;;;1.00;1.00;;;;;;;;5050391;28;9201;-86
2023/07/18 03:11:19;;;;;;;;;1.00;1.00;;;;;;;;5061021;28;9205;-87
2023/07/18 03:13:46;;;;;;;;;2.33;2.00;;;;;;;;5055574;28;9269;-92
2023/07/18 03:16:14;;;;;;;;;1.33;1.33;;;;;;;;5056022;28;9364;-93
2023/07/18 03:18:41;;;;;;;;;2.00;2.00;;;;;;;;5067326;28;9198;-95
2023/07/18 03:21:09;;;;;;;;;3.00;3.00;;;;;;;;5068654;28;9344;-87
2023/07/18 03:23:38;;;;;;;;;3.33;1.00;;;;;;;;5054182;28;9174;-96
2023/07/18 03:26:05;;;;;;;;;2.67;1.00;;;;;;;;5050242;28;9233;-91
2023/07/18 03:28:32;;;;;;;;;2.00;2.00;;;;;;;;5059810;28;9210;-91
2023/07/18 03:31:00;;;;;;;;;4.33;1.00;;;;;;;;5070762;28;9213;-92
2023/07/18 03:33:27;;;;;;;;;1.00;1.00;;;;;;;;5079048;28;9229;-94
2023/07/18 03:35:55;;;;;;;;;1.33;1.33;;;;;;;;5081166;28;9211;-95
2023/07/18 03:38:22;;;;;;;;;2.00;2.00;;;;;;;;5072094;28;9196;-96
2023/07/18 03:40:51;;;;;;;;;1.00;1.00;;;;;;;;5062982;28;9186;-90
2023/07/18 03:43:19;;;;;;;;;3.00;1.33;;;;;;;;5067610;28;9099;-94
2023/07/18 03:45:46;;;;;;;;;1.00;1.00;;;;;;;;5072612;28;9158;-95
2023/07/18 03:48:13;;;;;;;;;1.67;1.67;;;;;;;;5064822;28;9085;-94
2023/07/18 03:50:41;;;;;;;;;2.00;2.00;;;;;;;;5053743;28;9458;-95
2023/07/18 03:53:08;;;;;;;;;2.67;2.67;;;;;;;;5053255;28;9295;-96
2023/07/18 03:55:35;;;;;;;;;1.33;1.33;;;;;;;;5053283;28;9211;-95
2023/07/18 03:58:04;;;;;;;;;2.00;2.00;;;;;;;;5053479;28;9098;-92
2023/07/18 04:00:31;;;;;;;;;2.00;2.00;;;;;;;;5061664;28;9192;-83
2023/07/18 04:02:59;;;;;;;;;1.67;1.67;;;;;;;;5072863;28;10050;-87
2023/07/18 04:05:26;;;;;;;;;2.67;2.00;;;;;;;;5057928;28;9436;-82
2023/07/18 04:07:53;;;;;;;;;3.00;1.00;;;;;;;;5063654;28;9164;-79
2023/07/18 04:10:20;;;;;;;;;2.00;2.00;;;;;;;;5069010;28;9238;-87
2023/07/18 04:12:47;;;;;;;;;1.00;1.00;;;;;;;;5081557;28;9201;-86
2023/07/18 04:15:16;;;;;;;;;2.00;2.00;;;;;;;;5067847;28;9454;-87
2023/07/18 04:17:44;;;;;;;;;1.00;1.00;;;;;;;;5077474;28;10130;-89
2023/07/18 04:20:13;;;;;;;;;2.00;2.00;;;;;;;;5075304;28;9430;-89
2023/07/18 04:22:40;;;;;;;;;3.00;1.33;;;;;;;;5055396;28;9529;-80
2023/07/18 04:25:08;;;;;;;;;2.00;2.00;;;;;;;;5051906;28;9316;-81
2023/07/18 04:27:35;;;;;;;;;2.00;2.00;;;;;;;;5052320;28;9350;-83
2023/07/18 04:30:02;;;;;;;;;1.00;1.00;;;;;;;;5051599;28;9350;-80
2023/07/18 04:32:30;;;;;;;;;3.00;1.00;;;;;;;;5051972;28;10058;-82
2023/07/18 04:34:59;;;;;;;;;1.33;1.33;;;;;;;;5052730;28;9731;-83
2023/07/18 04:37:28;;;;;;;;;3.00;3.00;;;;;;;;5060870;28;9387;-83
2023/07/18 04:39:55;;;;;;;;;1.00;1.00;;;;;;;;5071846;28;10181;-78
2023/07/18 04:42:22;;;;;;;;;3.33;3.33;;;;;;;;5060978;28;9216;-80
2023/07/18 04:44:49;;;;;;;;;2.00;2.00;;;;;;;;5068343;28;9324;-84
2023/07/18 04:47:16;;;;;;;;;2.00;2.00;;;;;;;;5064256;28;9372;-86
2023/07/18 04:49:45;;;;;;;;;2.00;2.00;;;;;;;;5063656;28;10135;-85
2023/07/18 04:52:12;;;;;;;;;2.00;2.00;;;;;;;;5062627;28;9324;-87
2023/07/18 04:54:40;;;;;;;;;2.00;2.00;;;;;;;;5064637;28;9338;-83
2023/07/18 04:57:07;;;;;;;;;5.00;3.00;;;;;;;;5063437;28;9327;-73
2023/07/18 04:59:34;;;;;;;;;5.00;2.00;;;;;;;;5057975;28;9202;-73
2023/07/18 05:02:01;;;;;;;;;1.67;1.67;;;;;;;;5062589;28;9120;-74
2023/07/18 05:04:29;;;;;;;;;2.00;2.00;;;;;;;;5057095;28;8978;-76
2023/07/18 05:06:58;;;;;;;;;2.00;2.00;;;;;;;;5057089;28;9180;-83
2023/07/18 05:09:28;;;;;;;;;2.33;2.33;;;;;;;;5058256;28;9181;-82
2023/07/18 05:11:55;;;;;;;;;1.33;1.33;;;;;;;;5061485;28;8991;-73
2023/07/18 05:14:22;;;;;;;;;2.00;2.00;;;;;;;;5061795;28;8920;-85
2023/07/18 05:16:50;;;;;;;;;1.33;0.33;;;;;;;;5060024;28;9004;-84
2023/07/18 05:19:17;;;;;;;;;4.33;3.00;;;;;;;;5059010;28;8959;-79
2023/07/18 05:21:44;;;;;;;;;6.00;4.25;;;;;;;;5068309;28;8941;-84
2023/07/18 05:24:12;;;;;;;;;5.00;3.00;;;;;;;;5053429;28;8865;-85
2023/07/18 05:26:40;;;;;;;;;4.67;4.67;;;;;;;;5052699;28;9015;-82
2023/07/18 05:29:07;;;;;;;;;5.33;3.67;;;;;;;;5050581;28;9285;-83
2023/07/18 05:31:34;;;;;;;;;3.67;3.67;;;;;;;;5050940;28;9188;-86
2023/07/18 05:34:02;;;;;;;;;2.00;2.00;;;;;;;;5051016;28;9017;-74
2023/07/18 05:36:29;;;;;;;;;2.50;2.50;;;;;;;;5051854;28;8855;-82
2023/07/18 05:38:56;;;;;;;;;3.75;3.00;;;;;;;;5051556;28;9681;-88
2023/07/18 05:41:25;;;;;;;;;3.00;3.00;;;;;;;;5051613;28;8878;-86
2023/07/18 05:43:52;;;;;;;;;1.75;1.75;;;;;;;;5052663;28;8977;-83
2023/07/18 05:46:19;;;;;;;;;2.25;2.25;;;;;;;;5053481;28;8889;-91
2023/07/18 05:48:46;;;;;;;;;1.00;1.00;;;;;;;;5055346;28;8855;-88
2023/07/18 05:51:14;;;;;;;;;0.25;0.25;;;;;;;;5055257;28;8983;-93
2023/07/18 05:53:41;;;;;;;;;2.50;2.00;;;;;;;;5054781;28;8859;-89
2023/07/18 05:56:08;;;;;;;;;3.50;2.75;;;;;;;;5052308;28;8892;-73
2023/07/18 05:58:37;;;;;;;;;2.00;2.00;;;;;;;;5052718;28;8955;-85
2023/07/18 06:01:05;;;;;;;;;2.00;2.00;;;;;;;;5055080;28;8787;-88
2023/07/18 06:03:33;;;;;;;;;2.00;2.00;;;;;;;;5053278;28;8998;-79
2023/07/18 06:06:00;;;;;;;;;3.00;2.00;;;;;;;;5050612;28;8847;-78
2023/07/18 06:08:28;;;;;;;;;11.00;11.00;;;;;;;;5050859;28;8885;-83
2023/07/18 06:10:57;;;;;;;;;4.50;4.50;;;;;;;;5050126;28;8851;-80
2023/07/18 06:13:24;;;;;;;;;3.75;2.50;;;;;;;;5050026;28;8854;-78
2023/07/18 06:15:53;;;;;;;;;2.00;2.00;;;;;;;;5050034;28;8859;-83
2023/07/18 06:18:20;;;;;;;;;4.00;4.00;;;;;;;;5049632;28;8866;-80
2023/07/18 06:20:47;;;;;;;;;3.00;2.00;;;;;;;;5049771;28;8858;-82
2023/07/18 06:23:14;;;;;;;;;1.75;1.75;;;;;;;;5049279;28;8966;-85
2023/07/18 06:25:42;;;;;;;;;3.50;2.50;;;;;;;;5049719;28;8961;-80
2023/07/18 06:28:09;;;;;;;;;2.50;1.75;;;;;;;;5049715;28;8885;-85
2023/07/18 06:30:37;;;;;;;;;3.00;1.25;;;;;;;;5049252;28;8767;-83
2023/07/18 06:33:05;;;;;;;;;1.75;1.75;;;;;;;;5053062;28;8846;-79
2023/07/18 06:35:33;;;;;;;;;2.75;2.00;;;;;;;;5053202;28;8847;-83
2023/07/18 06:38:01;;;;;;;;;2.00;1.00;;;;;;;;5051799;28;8928;-79
2023/07/18 06:40:28;;;;;;;;;2.75;0.75;;;;;;;;5050544;28;8863;-71
2023/07/18 06:42:55;;;;;;;;;0.75;0.75;;;;;;;;5050014;28;8847;-75
2023/07/18 06:45:24;;;;;;;;;4.25;1.25;;;;;;;;5050555;28;8859;-81
2023/07/18 06:47:51;;;;;;;;;0.75;0.75;;;;;;;;5051431;28;9456;-77
2023/07/18 06:50:19;;;;;;;;;1.75;1.25;;;;;;;;5051254;28;8892;-75
2023/07/18 06:52:47;;;;;;;;;1.50;0.00;;;;;;;;5051308;28;9599;-81
2023/07/18 06:55:14;;;;;;;;;1.75;0.50;;;;;;;;5050343;28;8966;-80
2023/07/18 06:57:41;;;;;;;;;1.75;1.50;;;;;;;;5049841;28;8855;-74
2023/07/18 07:00:11;;;;;;;;;2.25;2.25;;;;;;;;5048978;28;8877;-81
2023/07/18 07:02:38;;;;;;;;;0.75;0.75;;;;;;;;5050080;28;8888;-87
2023/07/18 07:05:06;;;;;;;;;1.50;0.75;;;;;;;;5050436;28;8871;-86
2023/07/18 07:07:34;;;;;;;;;2.50;0.75;;;;;;;;5050355;28;8998;-87
2023/07/18 07:10:02;;;;;;;;;2.00;0.80;;;;;;;;5058980;28;8973;-80
2023/07/18 07:12:29;;;;;;;;;2.00;0.00;;;;;;;;5056534;28;8969;-83
2023/07/18 07:14:56;;;;;;;;;0.20;0.20;;;;;;;;5060715;28;8918;-89
2023/07/18 07:17:24;;;;;;;;;1.60;0.60;;;;;;;;5075183;28;8867;-90
2023/07/18 07:19:51;;;;;;;;;2.20;2.00;;;;;;;;5075031;28;9018;-80
2023/07/18 07:22:18;;;;;;;;;1.60;1.00;;;;;;;;5074972;28;8871;-81
2023/07/18 07:24:48;;;;;;;;;0.60;0.60;;;;;;;;5076430;28;8890;-83
2023/07/18 07:27:15;;;;;;;;;0.60;0.60;;;;;;;;5076935;28;8856;-84
2023/07/18 07:29:42;;;;;;;;;0.80;0.80;;;;;;;;5075534;28;8864;-84
2023/07/18 07:32:10;;;;;;;;;2.00;0.00;;;;;;;;5073391;28;8796;-84
2023/07/18 07:34:37;;;;;;;;;0.00;0.00;;;;;;;;5072437;28;9742;-75
2023/07/18 07:37:05;;;;;;;;;0.40;0.40;;;;;;;;5072726;28;8855;-76
2023/07/18 07:39:32;;;;;;;;;1.40;0.60;;;;;;;;5072326;28;8874;-79
2023/07/18 07:42:01;;;;;;;;;1.00;1.00;;;;;;;;5072706;28;8995;-72
2023/07/18 07:44:28;;;;;;;;;3.20;0.80;;;;;;;;5073066;28;8864;-74
2023/07/18 07:46:56;;;;;;;;;1.60;0.60;;;;;;;;5073977;28;8863;-79
2023/07/18 07:49:23;;;;;;;;;0.00;0.00;;;;;;;;5073605;28;8937;-78
2023/07/18 07:51:50;;;;;;;;;0.80;0.80;;;;;;;;5072494;28;8848;-81
2023/07/18 07:54:18;;;;;;;;;0.00;0.00;;;;;;;;5072213;28;9607;-78
2023/07/18 07:56:45;;;;;;;;;1.00;1.00;;;;;;;;5072266;28;9710;-78
2023/07/18 07:59:13;;;;;;;;;6.00;1.00;;;;;;;;5072205;28;9627;-78
2023/07/18 08:01:40;;;;;;;;;0.80;0.40;;;;;;;;5071950;28;8807;-81
2023/07/18 08:04:09;;;;;;;;;1.00;1.00;;;;;;;;5071914;28;8844;-71
2023/07/18 08:06:36;;;;;;;;;0.00;0.00;;;;;;;;5072220;28;8898;-72
2023/07/18 08:09:04;;;;;;;;;0.40;0.40;;;;;;;;5071671;28;8876;-72
2023/07/18 08:11:31;;;;;;;;;1.80;1.80;;;;;;;;5071962;28;8872;-77
2023/07/18 08:13:59;;;;;;;;;0.00;0.00;;;;;;;;5067089;28;8839;-80
2023/07/18 08:16:30;;;;;;;;;0.00;0.00;;;;;;;;5052190;28;8847;-78
2023/07/18 08:18:58;;;;;;;;;1.80;1.80;;;;;;;;5052732;28;8843;-77
2023/07/18 08:21:26;;;;;;;;;0.40;0.40;;;;;;;;5051440;28;8847;-73
2023/07/18 08:23:54;;;;;;;;;1.00;1.00;;;;;;;;5053051;28;8994;-72
2023/07/18 08:26:22;;;;;;;;;0.80;0.80;;;;;;;;5052776;28;8878;-73
2023/07/18 08:28:49;;;;;;;;;1.40;0.40;;;;;;;;5052043;28;8851;-73
2023/07/18 08:31:16;;;;;;;;;0.80;0.80;;;;;;;;5051964;28;9014;-73
2023/07/18 08:33:46;;;;;;;;;0.20;0.00;;;;;;;;5051776;28;8981;-75
2023/07/18 08:36:13;;;;;;;;;0.00;0.00;;;;;;;;5051795;28;8974;-74
2023/07/18 08:38:43;;;;;;;;;0.80;0.80;;;;;;;;5051756;28;9698;-71
2023/07/18 08:41:10;;;;;;;;;0.00;0.00;;;;;;;;5051166;28;8928;-71
2023/07/18 08:43:38;;;;;;;;;0.00;0.00;;;;;;;;5051502;28;8882;-71
2023/07/18 08:46:05;;;;;;;;;0.00;0.00;;;;;;;;5051056;28;8855;-74
2023/07/18 08:48:32;;;;;;;;;0.20;0.20;;;;;;;;5051235;28;8912;-73
2023/07/18 08:51:04;;;;;;;;;0.80;0.80;;;;;;;;5051356;28;8861;-79
2023/07/18 08:53:34;;;;;;;;;1.20;0.60;;;;;;;;5051590;28;8866;-74
2023/07/18 08:56:01;;;;;;;;;0.00;0.00;;;;;;;;5051564;28;8875;-71
2023/07/18 08:58:28;;;;;;;;;0.20;0.20;;;;;;;;5052590;28;8982;-79
2023/07/18 09:00:57;;;;;;;;;0.20;0.20;;;;;;;;5054466;28;8806;-85
2023/07/18 09:03:24;;;;;;;;;1.80;0.20;;;;;;;;5056544;28;8867;-89
2023/07/18 09:05:52;;;;;;;;;0.00;0.00;;;;;;;;5059800;28;8959;-89
2023/07/18 09:08:22;;;;;;;;;0.00;0.00;;;;;;;;5056379;28;8881;-85
2023/07/18 09:10:49;;;;;;;;;0.80;0.80;;;;;;;;5053493;28;8866;-85
2023/07/18 09:13:17;;;;;;;;;0.60;0.60;;;;;;;;5051955;28;8881;-87
2023/07/18 09:15:44;;;;;;;;;1.00;0.20;;;;;;;;5071376;28;8959;-75
2023/07/18 09:18:12;;;;;;;;;0.20;0.20;;;;;;;;5071473;28;8837;-75
2023/07/18 09:20:40;;;;;;;;;2.60;0.00;;;;;;;;5071410;28;8863;-86
2023/07/18 09:23:08;;;;;;;;;0.20;0.20;;;;;;;;5071212;28;8852;-85
2023/07/18 09:25:40;;;;;;;;;0.00;0.00;;;;;;;;5071117;28;8848;-79
2023/07/18 09:28:13;;;;;;;;;3.00;0.00;;;;;;;;5071017;28;9615;-80
2023/07/18 09:30:40;;;;;;;;;0.00;0.00;;;;;;;;5070386;28;8765;-83
2023/07/18 09:33:08;;;;;;;;;0.00;0.00;;;;;;;;5069680;28;8937;-81
2023/07/18 09:35:37;;;;;;;;;0.00;0.00;;;;;;;;5070054;28;8844;-77
2023/07/18 09:38:05;;;;;;;;;0.00;0.00;;;;;;;;5070180;28;8837;-73
2023/07/18 09:40:32;;;;;;;;;1.40;0.00;;;;;;;;5070204;28;8848;-77
2023/07/18 09:43:02;;;;;;;;;0.00;0.00;;;;;;;;5071469;28;8863;-79
2023/07/18 09:45:31;;;;;;;;;0.00;0.00;;;;;;;;5071156;28;8857;-80
2023/07/18 09:47:59;;;;;;;;;0.00;0.00;;;;;;;;5071117;28;8828;-87
2023/07/18 09:50:28;;;;;;;;;0.00;0.00;;;;;;;;5071580;28;8856;-80
2023/07/18 09:52:58;;;;;;;;;0.00;0.00;;;;;;;;5071138;28;8836;-83
2023/07/18 09:55:27;;;;;;;;;0.20;0.20;;;;;;;;5070501;28;8872;-85
2023/07/18 09:57:56;;;;;;;;;0.00;0.00;;;;;;;;5070752;28;8852;-80
2023/07/18 10:00:25;;;;;;;;;0.00;0.00;;;;;;;;5071959;28;10934;-85
2023/07/18 10:02:54;;;;;;;;;1.20;1.00;;;;;;;;5072049;28;8873;-84
2023/07/18 10:05:21;;;;;;;;;1.00;1.00;;;;;;;;5072008;28;8853;-85
2023/07/18 10:07:48;;;;;;;;;0.00;0.00;;;;;;;;5071229;28;8872;-82
2023/07/18 10:10:16;;;;;;;;;0.00;0.00;;;;;;;;5069825;28;8887;-79
2023/07/18 10:12:59;;;;;;;;;0.00;0.00;;;;;;;;5071438;28;8864;-87
2023/07/18 10:15:28;;;;;;;;;0.00;0.00;;;;;;;;5056974;28;8851;-89
2023/07/18 10:18:00;;;;;;;;;0.00;0.00;;;;;;;;5053248;28;8867;-88
2023/07/18 10:20:33;;;;;;;;;0.40;0.40;;;;;;;;5052237;28;8871;-88
2023/07/18 10:23:01;;;;;;;;;0.20;0.00;;;;;;;;5051921;28;8851;-87
2023/07/18 10:25:31;;;;;;;;;0.40;0.40;;;;;;;;5051003;28;8866;-82
2023/07/18 10:27:59;;;;;;;;;0.00;0.00;;;;;;;;5051586;28;8862;-81
2023/07/18 10:30:38;;;;;;;;;0.00;0.00;;;;;;;;5051501;28;8723;-93
2023/07/18 10:33:08;;;;;;;;;0.60;0.00;;;;;;;;5051642;28;8879;-86
2023/07/18 10:35:41;;;;;;;;;0.00;0.00;;;;;;;;5052602;28;8859;-78
2023/07/18 10:38:09;;;;;;;;;1.00;1.00;;;;;;;;5052281;28;8866;-88
2023/07/18 10:40:39;;;;;;;;;1.80;0.00;;;;;;;;5051841;28;8855;-87
2023/07/18 10:43:06;;;;;;;;;0.00;0.00;;;;;;;;5054087;28;8952;-83
2023/07/18 10:45:39;;;;;;;;;2.00;0.00;;;;;;;;5051538;28;8897;-89
2023/07/18 10:48:13;;;;;;;;;0.00;0.00;;;;;;;;5050503;28;8859;-85
2023/07/18 10:50:41;;;;;;;;;2.20;0.80;;;;;;;;5053359;28;8855;-82
2023/07/18 10:53:11;;;;;;;;;0.00;0.00;;;;;;;;5052656;28;9630;-78
2023/07/18 10:55:39;;;;;;;;;1.40;0.00;;;;;;;;5049974;28;8859;-82
2023/07/18 10:58:11;;;;;;;;;0.00;0.00;;;;;;;;5048470;28;8997;-83
2023/07/18 11:00:40;;;;;;;;;0.00;0.00;;;;;;;;5049587;28;8739;-81
2023/07/18 11:03:08;;;;;;;;;0.20;0.20;;;;;;;;5048936;28;8855;-87
2023/07/18 11:05:35;;;;;;;;;1.60;1.60;;;;;;;;5049471;28;8862;-82
2023/07/18 11:08:02;;;;;;;;;0.20;0.20;;;;;;;;5049246;28;8902;-83
2023/07/18 11:10:34;;;;;;;;;0.60;0.60;;;;;;;;5049833;28;8839;-82
2023/07/18 11:13:01;;;;;;;;;0.20;0.20;;;;;;;;5049898;28;8847;-75
2023/07/18 11:15:31;;;;;;;;;2.20;0.00;;;;;;;;5067347;28;8955;-87
2023/07/18 11:18:00;;;;;;;;;0.80;0.80;;;;;;;;5069692;28;8867;-85
2023/07/18 11:20:27;;;;;;;;;0.00;0.00;;;;;;;;5069794;28;8895;-89
2023/07/18 11:22:54;;;;;;;;;0.40;0.40;;;;;;;;5069570;28;8879;-79
2023/07/18 11:25:22;;;;;;;;;0.20;0.00;;;;;;;;5069048;28;8856;-81
2023/07/18 11:27:50;;;;;;;;;0.20;0.20;;;;;;;;5070121;28;8844;-86
2023/07/18 11:30:22;;;;;;;;;0.00;0.00;;;;;;;;5069486;28;8859;-78
2023/07/18 11:32:50;;;;;;;;;1.00;0.00;;;;;;;;5068672;28;8836;-73
2023/07/18 11:35:21;;;;;;;;;0.00;0.00;;;;;;;;5069115;28;8852;-75
2023/07/18 11:37:52;;;;;;;;;0.00;0.00;;;;;;;;5069629;28;8856;-84
2023/07/18 11:40:21;;;;;;;;;0.20;0.20;;;;;;;;5068740;28;8856;-83
2023/07/18 11:42:50;;;;;;;;;0.00;0.00;;;;;;;;5069820;28;8939;-82
2023/07/18 11:45:18;;;;;;;;;2.80;0.00;;;;;;;;5069483;28;8856;-86
2023/07/18 11:47:47;;;;;;;;;0.00;0.00;;;;;;;;5068606;28;8837;-80
2023/07/18 11:50:15;;;;;;;;;1.00;0.00;;;;;;;;5069316;28;8870;-85
2023/07/18 11:52:49;;;;;;;;;0.00;0.00;;;;;;;;5069823;28;8897;-85
2023/07/18 11:55:17;;;;;;;;;0.00;0.00;;;;;;;;5069362;28;8864;-87
2023/07/18 11:57:45;;;;;;;;;0.00;0.00;;;;;;;;5073514;28;8879;-83
2023/07/18 12:00:13;;;;;;;;;0.40;0.00;;;;;;;;5073712;28;8877;-89
2023/07/18 12:02:41;;;;;;;;;0.40;0.00;;;;;;;;5073084;28;8870;-85
2023/07/18 12:05:08;;;;;;;;;0.00;0.00;;;;;;;;5074605;28;8848;-84
2023/07/18 12:07:35;;;;;;;;;0.00;0.00;;;;;;;;5075740;28;8895;-87
2023/07/18 12:10:06;;;;;;;;;1.80;0.20;;;;;;;;5076755;28;8872;-86
2023/07/18 12:12:34;;;;;;;;;0.00;0.00;;;;;;;;5078370;28;8856;-85
2023/07/18 12:15:01;;;;;;;;;0.00;0.00;;;;;;;;5062348;28;8847;-76
2023/07/18 12:17:29;;;;;;;;;0.00;0.00;;;;;;;;5054818;28;8871;-87
2023/07/18 12:19:56;;;;;;;;;0.80;0.00;;;;;;;;5053738;28;8920;-83
2023/07/18 12:22:24;;;;;;;;;0.20;0.20;;;;;;;;5052218;28;8877;-88
2023/07/18 12:24:51;;;;;;;;;0.40;0.40;;;;;;;;5052724;28;8956;-80
2023/07/18 12:27:21;;;;;;;;;0.80;0.80;;;;;;;;5051996;28;8878;-80
2023/07/18 12:29:49;;;;;;;;;0.00;0.00;;;;;;;;5052149;28;8850;-86
2023/07/18 12:32:16;;;;;;;;;1.00;1.00;;;;;;;;5051689;28;8813;-76
2023/07/18 12:34:43;;;;;;;;;1.00;1.00;;;;;;;;5051869;28;8851;-86
2023/07/18 12:37:11;;;;;;;;;1.80;1.00;;;;;;;;5051367;28;8855;-80
2023/07/18 12:39:39;;;;;;;;;0.00;0.00;;;;;;;;5051899;28;8851;-84
2023/07/18 12:42:06;;;;;;;;;0.20;0.20;;;;;;;;5051708;28;8895;-78
2023/07/18 12:44:42;;;;;;;;;0.60;0.60;;;;;;;;5054199;28;8843;-79
2023/07/18 12:47:10;;;;;;;;;1.80;0.00;;;;;;;;5053520;28;8928;-82
2023/07/18 12:49:37;;;;;;;;;2.00;0.40;;;;;;;;5052032;28;8847;-86
2023/07/18 12:52:06;;;;;;;;;0.00;0.00;;;;;;;;5051715;28;8851;-83
2023/07/18 12:54:34;;;;;;;;;0.00;0.00;;;;;;;;5051719;28;8870;-83
2023/07/18 12:57:01;;;;;;;;;0.00;0.00;;;;;;;;5051281;28;9009;-76
2023/07/18 12:59:31;;;;;;;;;0.40;0.40;;;;;;;;5052233;28;8851;-84
2023/07/18 13:02:00;;;;;;;;;0.00;0.00;;;;;;;;5051098;28;8818;-76
2023/07/18 13:04:30;;;;;;;;;0.00;0.00;;;;;;;;5051874;28;8897;-84
2023/07/18 13:06:58;;;;;;;;;0.00;0.00;;;;;;;;5051992;28;8863;-86
2023/07/18 13:09:25;;;;;;;;;0.00;0.00;;;;;;;;5052443;28;8858;-77
2023/07/18 13:11:52;;;;;;;;;0.00;0.00;;;;;;;;5053265;28;8850;-76
2023/07/18 13:14:21;;;;;;;;;0.20;0.00;;;;;;;;5052836;28;8855;-85
2023/07/18 13:16:48;;;;;;;;;0.00;0.00;;;;;;;;5052315;28;8867;-78
2023/07/18 13:19:17;;;;;;;;;0.00;0.00;;;;;;;;5051650;28;8970;-81
2023/07/18 13:21:45;;;;;;;;;0.00;0.00;;;;;;;;5053194;28;8861;-83
2023/07/18 13:24:13;;;;;;;;;1.00;0.40;;;;;;;;5053956;28;8863;-85
2023/07/18 13:26:40;;;;;;;;;0.00;0.00;;;;;;;;5051640;28;8839;-84
2023/07/18 13:29:08;;;;;;;;;0.00;0.00;;;;;;;;5051412;28;8863;-88
2023/07/18 13:31:36;;;;;;;;;2.20;0.40;;;;;;;;5050811;28;8821;-84
2023/07/18 13:34:03;;;;;;;;;0.00;0.00;;;;;;;;5051400;28;8843;-87
2023/07/18 13:36:33;;;;;;;;;0.40;0.00;;;;;;;;5051442;28;8889;-79
2023/07/18 13:39:00;;;;;;;;;0.00;0.00;;;;;;;;5051842;28;8877;-82
2023/07/18 13:41:28;;;;;;;;;0.00;0.00;;;;;;;;5051517;28;8839;-87
2023/07/18 13:43:55;;;;;;;;;0.00;0.00;;;;;;;;5052143;28;8972;-84
2023/07/18 13:46:23;;;;;;;;;1.00;1.00;;;;;;;;5053069;28;8859;-89
2023/07/18 13:48:50;;;;;;;;;0.20;0.20;;;;;;;;5053829;28;8859;-87
2023/07/18 13:51:18;;;;;;;;;0.00;0.00;;;;;;;;5051530;28;8886;-84
2023/07/18 13:53:48;;;;;;;;;1.60;0.80;;;;;;;;5051445;28;8870;-88
2023/07/18 13:56:15;;;;;;;;;0.60;0.20;;;;;;;;5051362;28;8865;-82
2023/07/18 13:58:43;;;;;;;;;0.20;0.20;;;;;;;;5050493;28;8847;-79
2023/07/18 14:01:10;;;;;;;;;1.00;1.00;;;;;;;;5050387;28;8918;-79
2023/07/18 14:03:39;;;;;;;;;1.00;1.00;;;;;;;;5051071;28;8875;-82
2023/07/18 14:06:06;;;;;;;;;0.00;0.00;;;;;;;;5050032;28;8873;-82
2023/07/18 14:08:34;;;;;;;;;0.80;0.80;;;;;;;;5050322;28;8869;-86
2023/07/18 14:11:04;;;;;;;;;0.00;0.00;;;;;;;;5050391;28;8843;-76
2023/07/18 14:13:31;;;;;;;;;0.00;0.00;;;;;;;;5051434;28;8913;-77
2023/07/18 14:15:58;;;;;;;;;1.00;1.00;;;;;;;;5070842;28;8848;-84
2023/07/18 14:18:26;;;;;;;;;0.40;0.40;;;;;;;;5069376;28;8844;-85
2023/07/18 14:20:53;;;;;;;;;0.20;0.20;;;;;;;;5070023;28;8844;-84
2023/07/18 14:23:20;;;;;;;;;1.60;1.00;;;;;;;;5070188;28;8898;-87
2023/07/18 14:25:48;;;;;;;;;1.60;1.00;;;;;;;;5071061;28;8880;-83
2023/07/18 14:28:17;;;;;;;;;1.00;0.00;;;;;;;;5070344;28;8982;-88
2023/07/18 14:30:44;;;;;;;;;0.00;0.00;;;;;;;;5070281;28;9476;-87
2023/07/18 14:33:13;;;;;;;;;0.00;0.00;;;;;;;;5070658;28;8852;-90
2023/07/18 14:35:41;;;;;;;;;2.40;0.60;;;;;;;;5070918;28;8852;-80
2023/07/18 14:38:09;;;;;;;;;0.00;0.00;;;;;;;;5072717;28;8883;-78
2023/07/18 14:40:36;;;;;;;;;0.60;0.60;;;;;;;;5072415;28;8837;-81
2023/07/18 14:43:11;;;;;;;;;1.00;1.00;;;;;;;;5070320;28;8852;-83
2023/07/18 14:45:39;;;;;;;;;0.00;0.00;;;;;;;;5070316;28;8884;-79
2023/07/18 14:48:08;;;;;;;;;0.00;0.00;;;;;;;;5071670;28;8991;-91
2023/07/18 14:50:35;;;;;;;;;0.00;0.00;;;;;;;;5071197;28;8853;-81
2023/07/18 14:53:02;;;;;;;;;0.00;0.00;;;;;;;;5070013;28;8876;-83
2023/07/18 14:55:30;;;;;;;;;2.00;1.00;;;;;;;;5070153;28;8879;-78
2023/07/18 14:58:00;;;;;;;;;0.40;0.40;;;;;;;;5070466;28;8845;-82
2023/07/18 15:00:30;;;;;;;;;1.60;0.00;;;;;;;;5069709;28;9519;-77